To NAV CANADA Home Page Login to a new session Search on AWWS site Feedback and Comments Disclaimer Vers la page française équivalente Tips FAQ What's new on the site To the Forecasts and Observations / NOTAM section To "File a Flight Plan" website Publications and other links Update of the User's profile FIC Telephone Numbers My Weather Data Folder Route Weather Data Regional Weather Data Local Weather Data To the Forecasts and Observations / NOTAM section
Request Generated 08/05/2015 at 10:22:54 UTC . Weather information available at that time is displayed.

METAR/TAF

TORONTO/LESTER B. PEARSON INTL/ON    

METAR CYYZ 051000Z 28007KT 15SM FEW090 14/11 A2994 RMK AC1 AC TR
SLP139=
METAR CYYZ 050900Z 28007KT 15SM FEW100 15/11 A2994 RMK AC1 AC TR
SLP138 DENSITY ALT 600FT=
METAR CYYZ 050800Z 29007KT 15SM FEW100 15/11 A2994 RMK AC1 SLP137
DENSITY ALT 700FT=

TAF CYYZ 050838Z 0509/0612 30010KT P6SM SCT100
FM051600 31012KT P6SM SCT050
BECMG 0601/0603 31007KT
RMK NXT FCST BY 051200Z=
Your time UTC time
Weather data provided by Environment Canada and NAV CANADA